Time;durP1;ratioP1;P1;durP2;ratioP2;P2;SDS_P1;SDS_P2;PMS_P1;PMS_P2;Temp;Humidity;BMP_temperature;BMP_pressure;BME280_temperature;BME280_humidity;BME280_pressure;Samples;Min_cycle;Max_cycle;Signal;HPM_P1;HPM_P2
2023/12/12 00:00:15;;;;;;;8.17;4.00;;;11.20;99.90;;;;;;4970584;28;20213;-67
2023/12/12 00:02:40;;;;;;;15.77;3.50;;;11.20;99.90;;;;;;4964538;28;20178;-67
2023/12/12 00:05:06;;;;;;;8.43;3.40;;;11.20;99.90;;;;;;4961802;28;20873;-67
2023/12/12 00:07:32;;;;;;;10.47;3.40;;;11.30;99.90;;;;;;4963064;28;21703;-68
2023/12/12 00:09:57;;;;;;;13.20;4.00;;;11.20;99.90;;;;;;4966157;28;20906;-67
2023/12/12 00:12:23;;;;;;;11.90;3.90;;;11.30;99.90;;;;;;4969642;28;20666;-67
2023/12/12 00:14:49;;;;;;;6.30;3.10;;;11.30;99.90;;;;;;4968842;28;20245;-67
2023/12/12 00:17:14;;;;;;;9.67;3.20;;;11.20;99.90;;;;;;4968629;28;20453;-67
2023/12/12 00:19:42;;;;;;;12.50;4.10;;;11.20;99.90;;;;;;4968484;28;20213;-67
2023/12/12 00:22:08;;;;;;;15.70;3.83;;;11.30;99.90;;;;;;4968351;28;20274;-67
2023/12/12 00:24:34;;;;;;;9.93;4.10;;;11.40;99.90;;;;;;4970996;28;21051;-68
2023/12/12 00:26:59;;;;;;;10.60;3.83;;;11.30;99.90;;;;;;4966323;28;20505;-67
2023/12/12 00:29:25;;;;;;;11.50;3.40;;;11.30;99.90;;;;;;4963761;28;20645;-67
2023/12/12 00:31:50;;;;;;;7.97;3.80;;;11.40;99.90;;;;;;4964053;28;20535;-67
2023/12/12 00:34:16;;;;;;;16.23;3.83;;;11.40;99.90;;;;;;4963457;28;20404;-68
2023/12/12 00:36:42;;;;;;;10.87;3.23;;;11.40;99.90;;;;;;4961913;28;20187;-67
2023/12/12 00:39:08;;;;;;;10.83;3.80;;;11.40;99.90;;;;;;4973007;28;20289;-67
2023/12/12 00:41:34;;;;;;;13.83;3.90;;;11.30;99.90;;;;;;4966186;28;20187;-68
2023/12/12 00:44:00;;;;;;;8.97;3.40;;;11.30;99.90;;;;;;4958971;28;20453;-67
2023/12/12 00:46:26;;;;;;;9.17;4.10;;;11.30;99.90;;;;;;4967045;28;20413;-68
2023/12/12 00:48:51;;;;;;;10.83;4.53;;;11.30;99.90;;;;;;4963131;28;20279;-67
2023/12/12 00:51:17;;;;;;;15.77;4.50;;;11.30;99.90;;;;;;4967936;28;20213;-67
2023/12/12 00:53:42;;;;;;;11.87;3.83;;;11.30;99.90;;;;;;4971888;28;20245;-68
2023/12/12 00:56:08;;;;;;;12.70;4.13;;;11.30;99.90;;;;;;4956447;28;20194;-67
2023/12/12 00:58:43;;;;;;;8.80;4.07;;;11.30;99.90;;;;;;4967752;28;20205;-67
2023/12/12 01:01:10;;;;;;;12.57;4.27;;;11.30;99.90;;;;;;4966681;28;20257;-67
2023/12/12 01:03:35;;;;;;;9.13;4.37;;;11.30;99.90;;;;;;4964380;28;20492;-67
2023/12/12 01:06:01;;;;;;;11.47;4.23;;;11.30;99.90;;;;;;4968028;28;20972;-67
2023/12/12 01:08:26;;;;;;;11.33;3.27;;;11.30;99.90;;;;;;4965921;28;20182;-67
2023/12/12 01:10:52;;;;;;;12.27;4.17;;;11.30;99.90;;;;;;4963412;28;20188;-67
2023/12/12 01:13:18;;;;;;;13.73;3.93;;;11.30;99.90;;;;;;4965499;28;20225;-67
2023/12/12 01:15:43;;;;;;;9.43;4.20;;;11.30;99.90;;;;;;4970223;28;20194;-68
2023/12/12 01:18:09;;;;;;;15.53;4.57;;;11.30;99.90;;;;;;4968563;28;20183;-67
2023/12/12 01:20:34;;;;;;;15.37;3.00;;;11.30;99.90;;;;;;4957718;28;20563;-67
2023/12/12 01:23:00;;;;;;;7.80;3.10;;;11.30;99.90;;;;;;4967374;28;20210;-67
2023/12/12 01:25:25;;;;;;;13.33;3.57;;;11.30;99.90;;;;;;4964308;28;20261;-68
2023/12/12 01:27:51;;;;;;;15.43;3.80;;;11.30;99.90;;;;;;4965571;28;20217;-68
2023/12/12 01:30:17;;;;;;;11.97;3.90;;;11.30;99.90;;;;;;4963191;28;20185;-68
2023/12/12 01:32:42;;;;;;;10.37;3.80;;;11.30;99.90;;;;;;4960696;28;20688;-67
2023/12/12 01:35:08;;;;;;;14.87;3.67;;;11.30;99.90;;;;;;4962559;28;20178;-68
2023/12/12 01:37:33;;;;;;;7.67;3.30;;;11.30;99.90;;;;;;4961346;28;20214;-68
2023/12/12 01:39:59;;;;;;;9.83;3.53;;;11.20;99.90;;;;;;4965487;28;20210;-68
2023/12/12 01:42:24;;;;;;;12.73;3.77;;;11.20;99.90;;;;;;4961933;28;20182;-68
2023/12/12 01:44:50;;;;;;;11.30;3.90;;;11.20;99.90;;;;;;4961460;28;20701;-68
2023/12/12 01:47:16;;;;;;;12.17;3.50;;;11.20;99.90;;;;;;4963463;28;20175;-67
2023/12/12 01:49:42;;;;;;;16.93;4.23;;;11.20;99.90;;;;;;4961994;28;20706;-68
2023/12/12 01:52:08;;;;;;;8.50;3.40;;;11.20;99.90;;;;;;4971667;28;20959;-68
2023/12/12 01:54:38;;;;;;;12.63;4.20;;;11.20;99.90;;;;;;4963596;28;20489;-68
2023/12/12 01:57:04;;;;;;;10.60;4.60;;;11.20;99.90;;;;;;4964650;28;20429;-67
2023/12/12 01:59:30;;;;;;;13.90;4.77;;;11.10;99.90;;;;;;4965342;28;20466;-67
2023/12/12 02:01:56;;;;;;;9.97;3.70;;;11.10;99.90;;;;;;4962982;28;20757;-67
2023/12/12 02:04:22;;;;;;;7.83;3.60;;;11.00;99.90;;;;;;4963516;28;20501;-67
2023/12/12 02:06:49;;;;;;;8.83;3.40;;;11.00;99.90;;;;;;4965277;28;20194;-67
2023/12/12 02:09:15;;;;;;;7.10;3.80;;;11.00;99.90;;;;;;4971057;28;20896;-67
2023/12/12 02:11:40;;;;;;;5.90;3.30;;;11.00;99.90;;;;;;4968041;28;20565;-67
2023/12/12 02:14:08;;;;;;;11.20;3.70;;;10.90;99.90;;;;;;4969763;28;20206;-67
2023/12/12 02:16:35;;;;;;;16.37;3.40;;;10.90;99.90;;;;;;4966591;28;20272;-67
2023/12/12 02:19:00;;;;;;;12.33;4.70;;;10.90;99.90;;;;;;4968666;28;20449;-67
2023/12/12 02:21:26;;;;;;;13.10;4.13;;;10.90;99.90;;;;;;4981511;28;20432;-67
2023/12/12 02:23:51;;;;;;;7.03;3.60;;;10.90;99.90;;;;;;4972724;28;20198;-67
2023/12/12 02:26:17;;;;;;;11.70;3.70;;;10.90;99.90;;;;;;4969757;28;20186;-67
2023/12/12 02:28:43;;;;;;;11.97;3.10;;;10.90;99.90;;;;;;4964356;28;20194;-67
2023/12/12 02:31:09;;;;;;;9.07;4.30;;;10.90;99.90;;;;;;4962403;28;20679;-67
2023/12/12 02:33:35;;;;;;;8.13;3.60;;;10.90;99.90;;;;;;4971560;28;20209;-68
2023/12/12 02:36:00;;;;;;;15.17;4.07;;;10.90;99.90;;;;;;4970427;28;20430;-68
2023/12/12 02:38:26;;;;;;;14.03;4.57;;;10.90;99.90;;;;;;4975080;28;20548;-68
2023/12/12 02:40:51;;;;;;;9.50;3.53;;;10.80;99.90;;;;;;4967135;28;20193;-68
2023/12/12 02:43:17;;;;;;;8.33;3.30;;;10.80;99.90;;;;;;4964979;28;20658;-68
2023/12/12 02:45:43;;;;;;;8.97;3.63;;;10.80;99.90;;;;;;4963697;28;20200;-68
2023/12/12 02:48:09;;;;;;;9.70;3.40;;;10.80;99.90;;;;;;4967710;28;20229;-68
2023/12/12 02:50:34;;;;;;;10.90;3.80;;;10.80;99.90;;;;;;4965990;28;20189;-67
2023/12/12 02:53:00;;;;;;;11.33;4.30;;;10.80;99.90;;;;;;4969564;28;20205;-68
2023/12/12 02:55:25;;;;;;;9.33;3.90;;;10.80;99.90;;;;;;4969780;28;20950;-68
2023/12/12 02:57:51;;;;;;;10.27;4.33;;;10.80;99.90;;;;;;4965196;28;20682;-68
2023/12/12 03:00:16;;;;;;;15.03;4.00;;;10.80;99.90;;;;;;4962626;28;20703;-67
2023/12/12 03:02:42;;;;;;;9.60;3.80;;;10.80;99.90;;;;;;4964646;28;20792;-67
2023/12/12 03:05:08;;;;;;;8.40;3.93;;;10.70;99.90;;;;;;4972141;28;20230;-67
2023/12/12 03:07:34;;;;;;;8.40;4.00;;;10.80;99.90;;;;;;4970538;28;20293;-67
2023/12/12 03:10:00;;;;;;;7.03;3.90;;;10.70;99.90;;;;;;4972686;28;20522;-67
2023/12/12 03:12:26;;;;;;;12.67;3.90;;;10.80;99.90;;;;;;4966832;28;20210;-67
2023/12/12 03:14:51;;;;;;;11.50;4.30;;;10.70;99.90;;;;;;4970352;28;20202;-67
2023/12/12 03:17:17;;;;;;;8.03;3.83;;;10.70;99.90;;;;;;4960181;28;20187;-67
2023/12/12 03:19:42;;;;;;;11.30;4.47;;;10.70;99.90;;;;;;4964598;28;20234;-67
2023/12/12 03:22:08;;;;;;;6.87;3.73;;;10.70;99.90;;;;;;4964849;28;20202;-68
2023/12/12 03:24:33;;;;;;;7.40;3.67;;;10.70;99.90;;;;;;4959654;28;20211;-67
2023/12/12 03:26:59;;;;;;;14.43;4.80;;;10.70;99.90;;;;;;4955258;28;20198;-67
2023/12/12 03:29:25;;;;;;;11.37;4.60;;;10.70;99.90;;;;;;4961764;28;20218;-67
2023/12/12 03:31:50;;;;;;;11.90;5.03;;;10.70;99.90;;;;;;4962026;28;20210;-67
2023/12/12 03:34:16;;;;;;;9.37;4.67;;;10.60;99.90;;;;;;4960558;28;20605;-67
2023/12/12 03:36:43;;;;;;;10.57;4.30;;;10.60;99.90;;;;;;4958792;28;20202;-68
2023/12/12 03:39:10;;;;;;;11.83;4.13;;;10.60;99.90;;;;;;4960012;28;20222;-67
2023/12/12 03:41:35;;;;;;;5.83;4.00;;;10.60;99.90;;;;;;4957539;28;20573;-67
2023/12/12 03:44:01;;;;;;;7.77;4.40;;;10.60;99.90;;;;;;4965139;28;20545;-67
2023/12/12 03:46:26;;;;;;;5.10;3.63;;;10.60;99.90;;;;;;4962777;28;20707;-68
2023/12/12 03:48:52;;;;;;;10.60;4.40;;;10.60;99.90;;;;;;4963733;28;20194;-68
2023/12/12 03:51:17;;;;;;;11.27;4.60;;;10.60;99.90;;;;;;4964292;28;20195;-67
2023/12/12 03:53:43;;;;;;;9.00;4.47;;;10.60;99.90;;;;;;4958622;28;20257;-67
2023/12/12 03:56:09;;;;;;;13.27;4.43;;;10.60;99.90;;;;;;4963892;28;20195;-68
2023/12/12 03:58:35;;;;;;;10.20;4.80;;;10.60;99.90;;;;;;4957358;28;20225;-68
2023/12/12 04:01:00;;;;;;;12.57;4.90;;;10.60;99.90;;;;;;4961376;28;20912;-67
2023/12/12 04:03:26;;;;;;;13.17;5.40;;;10.60;99.90;;;;;;4962897;28;20293;-67
2023/12/12 04:05:51;;;;;;;6.40;3.90;;;10.60;99.90;;;;;;4963824;28;20198;-67
2023/12/12 04:08:17;;;;;;;7.93;3.80;;;10.60;99.90;;;;;;4960037;28;20199;-67
2023/12/12 04:10:43;;;;;;;8.77;4.03;;;10.50;99.90;;;;;;4957361;28;20209;-67
2023/12/12 04:13:09;;;;;;;12.80;4.60;;;10.50;99.90;;;;;;4962023;28;20454;-67
2023/12/12 04:15:34;;;;;;;8.07;4.43;;;10.50;99.90;;;;;;4956743;28;20198;-67
2023/12/12 04:18:00;;;;;;;10.10;4.50;;;10.50;99.90;;;;;;4960932;28;20191;-67
2023/12/12 04:20:25;;;;;;;7.87;3.50;;;10.50;99.90;;;;;;4954526;28;20214;-68
2023/12/12 04:22:51;;;;;;;8.97;4.23;;;10.60;99.90;;;;;;4959249;28;20207;-68
2023/12/12 04:25:19;;;;;;;8.40;3.50;;;10.60;99.90;;;;;;4960838;28;20202;-68
2023/12/12 04:27:44;;;;;;;9.07;3.90;;;10.60;99.90;;;;;;4958866;28;20217;-67
2023/12/12 04:30:10;;;;;;;10.97;4.13;;;10.60;99.90;;;;;;4957534;28;20467;-67
2023/12/12 04:32:36;;;;;;;10.80;5.07;;;10.70;99.90;;;;;;4960563;28;20195;-68
2023/12/12 04:35:05;;;;;;;9.23;4.57;;;10.70;99.90;;;;;;4963973;28;20571;-68
2023/12/12 04:37:30;;;;;;;11.30;4.70;;;10.80;99.90;;;;;;4965969;28;20202;-68
2023/12/12 04:39:56;;;;;;;8.13;4.70;;;10.80;99.90;;;;;;4955536;28;20470;-68
2023/12/12 04:42:23;;;;;;;10.07;4.00;;;10.80;99.90;;;;;;4959807;28;20254;-67
2023/12/12 04:44:49;;;;;;;7.47;4.47;;;10.80;99.90;;;;;;4960037;28;20278;-67
2023/12/12 04:47:14;;;;;;;9.10;4.20;;;10.90;99.90;;;;;;4962801;28;20430;-67
2023/12/12 04:49:40;;;;;;;12.30;4.20;;;10.90;99.90;;;;;;4957082;28;20211;-67
2023/12/12 04:52:05;;;;;;;11.53;4.50;;;10.90;99.90;;;;;;4958448;28;20236;-67
2023/12/12 04:54:31;;;;;;;14.00;4.47;;;11.00;99.90;;;;;;4956640;28;20705;-67
2023/12/12 04:56:57;;;;;;;10.90;4.37;;;11.00;99.90;;;;;;4958344;28;20529;-67
2023/12/12 04:59:22;;;;;;;7.10;4.13;;;11.00;99.90;;;;;;4962117;28;20292;-67
2023/12/12 05:01:49;;;;;;;7.90;4.70;;;11.00;99.90;;;;;;4959578;28;21017;-67
2023/12/12 05:04:14;;;;;;;10.43;4.50;;;11.10;99.90;;;;;;4958274;28;20594;-67
2023/12/12 05:06:40;;;;;;;8.37;4.40;;;11.10;99.90;;;;;;4955748;28;20423;-67
2023/12/12 05:09:06;;;;;;;11.93;5.03;;;11.10;99.90;;;;;;4961558;28;20210;-67
2023/12/12 05:11:31;;;;;;;13.20;6.00;;;11.10;99.90;;;;;;4962320;28;20454;-68
2023/12/12 05:13:57;;;;;;;14.20;5.80;;;11.10;99.90;;;;;;4964171;28;20261;-67
2023/12/12 05:16:24;;;;;;;7.60;4.30;;;11.20;99.90;;;;;;4963538;28;20194;-67
2023/12/12 05:18:49;;;;;;;11.20;4.50;;;11.20;99.90;;;;;;4958725;28;20214;-67
2023/12/12 05:21:16;;;;;;;8.53;4.27;;;11.20;99.90;;;;;;4958850;28;20445;-67
2023/12/12 05:23:42;;;;;;;6.53;3.83;;;11.20;99.90;;;;;;4962078;28;20202;-67
2023/12/12 05:26:08;;;;;;;8.10;3.43;;;11.20;99.90;;;;;;4959733;28;21048;-68
2023/12/12 05:28:33;;;;;;;7.73;5.00;;;11.30;99.90;;;;;;4963669;28;20426;-67
2023/12/12 05:30:59;;;;;;;9.80;4.27;;;11.30;99.90;;;;;;4957524;28;20217;-67
2023/12/12 05:33:25;;;;;;;6.57;3.50;;;11.30;99.90;;;;;;4977569;28;20284;-67
2023/12/12 05:35:50;;;;;;;8.43;3.50;;;11.30;99.90;;;;;;4965748;28;20210;-68
2023/12/12 05:38:16;;;;;;;14.60;4.03;;;11.30;99.90;;;;;;4961172;28;20191;-67
2023/12/12 05:40:42;;;;;;;5.37;3.63;;;11.30;99.90;;;;;;4960051;28;20187;-68
2023/12/12 05:43:07;;;;;;;6.20;3.50;;;11.30;99.90;;;;;;4960889;28;20547;-67
2023/12/12 05:45:33;;;;;;;12.63;4.13;;;11.30;99.90;;;;;;4967835;28;20189;-67
2023/12/12 05:47:58;;;;;;;10.30;3.87;;;11.30;99.90;;;;;;4957597;28;20187;-67
2023/12/12 05:50:24;;;;;;;7.87;4.27;;;11.30;99.90;;;;;;4959329;28;20206;-68
2023/12/12 05:52:50;;;;;;;13.93;3.50;;;11.30;99.90;;;;;;4964664;28;20644;-67
2023/12/12 05:55:16;;;;;;;7.10;4.00;;;11.30;99.90;;;;;;4962824;28;20194;-67
2023/12/12 05:57:42;;;;;;;9.03;3.60;;;11.30;99.90;;;;;;4964458;28;20437;-67
2023/12/12 06:00:08;;;;;;;8.03;3.43;;;11.30;99.90;;;;;;4964253;28;20483;-67
2023/12/12 06:02:33;;;;;;;6.83;3.50;;;11.30;99.90;;;;;;4963168;28;20186;-67
2023/12/12 06:04:59;;;;;;;12.00;3.80;;;11.40;99.90;;;;;;4966126;28;20504;-67
2023/12/12 06:07:25;;;;;;;8.20;3.20;;;11.30;99.90;;;;;;4960550;28;20782;-68
2023/12/12 06:09:51;;;;;;;6.53;3.40;;;11.30;99.90;;;;;;4963368;28;20222;-68
2023/12/12 06:12:17;;;;;;;8.70;3.27;;;11.30;99.90;;;;;;4968619;28;20186;-68
2023/12/12 06:14:44;;;;;;;7.00;3.50;;;11.40;99.90;;;;;;4960812;28;20932;-68
2023/12/12 06:17:11;;;;;;;12.50;3.63;;;11.40;99.90;;;;;;4966158;28;20536;-68
2023/12/12 06:19:37;;;;;;;6.53;3.73;;;11.40;99.90;;;;;;4961517;28;20537;-68
2023/12/12 06:22:03;;;;;;;8.97;3.93;;;11.40;99.90;;;;;;4965774;28;20609;-68
2023/12/12 06:24:28;;;;;;;11.93;3.47;;;11.40;99.90;;;;;;4964239;28;20210;-67
2023/12/12 06:26:55;;;;;;;8.47;3.90;;;11.40;99.90;;;;;;4957820;28;20441;-68
2023/12/12 06:29:20;;;;;;;7.43;3.70;;;11.40;99.90;;;;;;4959377;28;20187;-68
2023/12/12 06:31:46;;;;;;;6.80;4.10;;;11.40;99.90;;;;;;4956022;28;20437;-68
2023/12/12 06:34:11;;;;;;;9.33;3.40;;;11.40;99.90;;;;;;4960835;28;20209;-68
2023/12/12 06:36:37;;;;;;;8.10;3.50;;;11.40;99.90;;;;;;4961364;28;20194;-68
2023/12/12 06:39:03;;;;;;;9.43;3.23;;;11.40;99.90;;;;;;4960170;28;20298;-68
2023/12/12 06:41:29;;;;;;;10.40;3.67;;;11.40;99.90;;;;;;4959236;28;20832;-67
2023/12/12 06:43:55;;;;;;;9.33;3.77;;;11.40;99.90;;;;;;4962629;28;20454;-67
2023/12/12 06:46:20;;;;;;;7.03;3.40;;;11.40;99.90;;;;;;4961838;28;20187;-67
2023/12/12 06:48:47;;;;;;;5.50;3.47;;;11.40;99.90;;;;;;4964773;28;20197;-68
2023/12/12 06:51:13;;;;;;;7.07;3.27;;;11.40;99.90;;;;;;4954605;28;20647;-68
2023/12/12 06:53:38;;;;;;;7.07;3.57;;;11.40;99.90;;;;;;4964828;28;20516;-68
2023/12/12 06:56:05;;;;;;;9.60;3.50;;;11.50;99.90;;;;;;4963488;28;20191;-68
2023/12/12 06:58:31;;;;;;;7.77;3.20;;;11.50;99.90;;;;;;4964231;28;20193;-68
2023/12/12 07:00:57;;;;;;;10.47;3.30;;;11.50;99.90;;;;;;4967761;28;20915;-68
2023/12/12 07:03:22;;;;;;;8.13;3.00;;;11.50;99.90;;;;;;4965863;28;20218;-68
2023/12/12 07:05:52;;;;;;;7.37;3.17;;;11.50;99.90;;;;;;4956846;28;20462;-68
2023/12/12 07:08:18;;;;;;;7.10;3.90;;;11.50;99.90;;;;;;4959127;28;20281;-68
2023/12/12 07:10:45;;;;;;;9.10;3.30;;;11.50;99.90;;;;;;4959409;28;20449;-68
2023/12/12 07:13:10;;;;;;;10.13;3.90;;;11.50;99.90;;;;;;4965421;28;21089;-67
2023/12/12 07:15:36;;;;;;;7.70;3.30;;;11.50;99.90;;;;;;4959050;28;20438;-68
2023/12/12 07:18:02;;;;;;;9.20;3.93;;;11.50;99.90;;;;;;4968240;28;20191;-68
2023/12/12 07:20:27;;;;;;;5.53;3.07;;;11.50;99.90;;;;;;4955541;28;20351;-68
2023/12/12 07:22:53;;;;;;;6.03;2.90;;;11.50;99.90;;;;;;4967067;28;20209;-68
2023/12/12 07:25:20;;;;;;;5.97;3.47;;;11.50;99.90;;;;;;4962525;28;20183;-68
2023/12/12 07:27:46;;;;;;;6.07;3.23;;;11.50;99.90;;;;;;4957609;28;20187;-68
2023/12/12 07:30:12;;;;;;;9.00;3.10;;;11.60;99.90;;;;;;4959562;28;20443;-68
2023/12/12 07:32:38;;;;;;;11.53;3.23;;;11.60;99.90;;;;;;4964351;28;21253;-69
2023/12/12 07:35:04;;;;;;;10.37;3.83;;;11.60;99.90;;;;;;4959324;28;20197;-67
2023/12/12 07:37:30;;;;;;;10.27;3.20;;;11.60;99.90;;;;;;4958030;28;20440;-67
2023/12/12 07:39:56;;;;;;;6.70;2.77;;;11.60;99.90;;;;;;4962421;28;20498;-67
2023/12/12 07:42:21;;;;;;;5.50;2.63;;;11.60;99.90;;;;;;4964218;28;20469;-68
2023/12/12 07:44:47;;;;;;;7.77;2.90;;;11.60;99.90;;;;;;4962096;28;20286;-68
2023/12/12 07:47:17;;;;;;;8.80;4.23;;;11.60;99.90;;;;;;4959879;28;20194;-67
2023/12/12 07:49:42;;;;;;;5.13;3.10;;;11.60;99.90;;;;;;4963288;28;20203;-67
2023/12/12 07:52:08;;;;;;;6.50;3.77;;;11.70;99.90;;;;;;4959574;28;20453;-67
2023/12/12 07:54:33;;;;;;;7.20;4.03;;;11.70;99.90;;;;;;4956377;28;20215;-67
2023/12/12 07:56:59;;;;;;;7.83;3.57;;;11.70;99.90;;;;;;4961083;28;20270;-68
2023/12/12 07:59:25;;;;;;;5.97;3.10;;;11.70;99.90;;;;;;4962049;28;20211;-68
2023/12/12 08:01:50;;;;;;;8.60;3.73;;;11.70;99.90;;;;;;4965612;28;20295;-67
2023/12/12 08:04:16;;;;;;;8.63;4.00;;;11.70;99.90;;;;;;4964028;28;20220;-67
2023/12/12 08:06:42;;;;;;;4.50;2.70;;;11.80;99.90;;;;;;4961447;28;20209;-67
2023/12/12 08:09:07;;;;;;;10.63;3.33;;;11.80;99.90;;;;;;4954256;28;20235;-67
2023/12/12 08:11:33;;;;;;;9.50;3.60;;;11.80;99.90;;;;;;4960984;28;20438;-68
2023/12/12 08:14:00;;;;;;;8.63;3.30;;;11.80;99.90;;;;;;4960047;28;20221;-68
2023/12/12 08:16:26;;;;;;;5.77;3.17;;;11.90;99.90;;;;;;4965928;28;20193;-68
2023/12/12 08:18:51;;;;;;;11.80;4.10;;;11.90;99.90;;;;;;4959692;28;20964;-67
2023/12/12 08:21:17;;;;;;;18.03;10.50;;;11.90;99.90;;;;;;4965761;28;20441;-68
2023/12/12 08:23:43;;;;;;;9.10;4.00;;;11.90;99.90;;;;;;4962482;28;20229;-68
2023/12/12 08:26:12;;;;;;;9.33;4.10;;;12.00;99.90;;;;;;4954942;28;20505;-68
2023/12/12 08:28:38;;;;;;;6.90;3.07;;;12.00;99.90;;;;;;4957435;28;20539;-68
2023/12/12 08:31:05;;;;;;;8.13;3.50;;;12.00;99.90;;;;;;4966436;28;20596;-68
2023/12/12 08:33:31;;;;;;;7.13;3.40;;;12.10;99.90;;;;;;4960681;28;20773;-68
2023/12/12 08:35:57;;;;;;;14.23;4.37;;;12.10;99.90;;;;;;4958497;28;20558;-67
2023/12/12 08:38:23;;;;;;;8.67;3.93;;;12.20;99.90;;;;;;4962026;28;20475;-67
2023/12/12 08:40:49;;;;;;;12.60;4.10;;;12.20;99.90;;;;;;4955377;28;20468;-67
2023/12/12 08:43:14;;;;;;;8.00;3.57;;;12.20;99.90;;;;;;4961771;28;20271;-67
2023/12/12 08:45:40;;;;;;;12.50;4.60;;;12.30;99.90;;;;;;4959381;28;20193;-67
2023/12/12 08:48:05;;;;;;;10.77;4.67;;;12.30;99.90;;;;;;4966075;28;20217;-68
2023/12/12 08:50:31;;;;;;;6.40;3.70;;;12.30;99.90;;;;;;4953372;28;20649;-67
2023/12/12 08:52:58;;;;;;;12.83;4.30;;;12.30;99.90;;;;;;4965151;28;20803;-67
2023/12/12 08:55:23;;;;;;;8.00;3.73;;;12.30;99.90;;;;;;4956883;28;20236;-67
2023/12/12 08:57:49;;;;;;;7.90;4.13;;;12.40;99.90;;;;;;4954836;28;20449;-68
2023/12/12 09:00:15;;;;;;;9.93;3.70;;;12.40;99.90;;;;;;4958863;28;20207;-67
2023/12/12 09:02:41;;;;;;;8.73;3.47;;;12.40;99.90;;;;;;4957223;28;20175;-68
2023/12/12 09:05:07;;;;;;;8.47;3.73;;;12.50;99.90;;;;;;4958826;28;20484;-67
2023/12/12 09:07:33;;;;;;;5.53;3.40;;;12.50;99.90;;;;;;4957322;28;20606;-68
2023/12/12 09:10:06;;;;;;;6.07;3.50;;;12.50;99.90;;;;;;4960144;28;20949;-68
2023/12/12 09:12:32;;;;;;;5.53;2.80;;;12.50;99.90;;;;;;4959102;28;20430;-67
2023/12/12 09:14:57;;;;;;;8.20;2.90;;;12.50;99.90;;;;;;4961826;28;20434;-68
2023/12/12 09:17:23;;;;;;;6.60;2.80;;;12.60;99.90;;;;;;4959836;28;20226;-68
2023/12/12 09:19:48;;;;;;;5.40;3.53;;;12.60;99.90;;;;;;4960997;28;20665;-68
2023/12/12 09:22:14;;;;;;;5.70;3.23;;;12.60;99.90;;;;;;4958873;28;20186;-68
2023/12/12 09:24:40;;;;;;;6.53;3.30;;;12.60;99.90;;;;;;4961196;28;20559;-68
2023/12/12 09:27:06;;;;;;;8.63;4.10;;;12.60;99.90;;;;;;4961260;28;20429;-67
2023/12/12 09:29:31;;;;;;;9.43;4.30;;;12.60;99.90;;;;;;4965034;28;20190;-68
2023/12/12 09:31:57;;;;;;;9.43;4.50;;;12.60;99.90;;;;;;4962276;28;20374;-68
2023/12/12 09:34:26;;;;;;;5.10;3.33;;;12.60;99.90;;;;;;4966267;28;20743;-68
2023/12/12 09:36:51;;;;;;;4.50;2.90;;;12.60;99.90;;;;;;4966053;28;20194;-68
2023/12/12 09:39:17;;;;;;;8.47;4.93;;;12.60;99.90;;;;;;4964296;28;20494;-68
2023/12/12 09:41:47;;;;;;;6.53;3.67;;;12.60;99.90;;;;;;4961923;28;20237;-68
2023/12/12 09:44:15;;;;;;;6.20;3.60;;;12.60;99.90;;;;;;4958193;28;20560;-68
2023/12/12 09:46:42;;;;;;;5.90;3.93;;;12.50;99.90;;;;;;4959630;28;20469;-68
2023/12/12 09:49:11;;;;;;;4.00;2.50;;;12.50;99.90;;;;;;4963667;28;20452;-67
2023/12/12 09:51:40;;;;;;;10.07;2.97;;;12.50;99.90;;;;;;4964480;28;20975;-67
2023/12/12 09:54:07;;;;;;;13.77;3.53;;;12.50;99.90;;;;;;4963869;28;20560;-67
2023/12/12 09:56:36;;;;;;;5.87;3.23;;;12.50;99.90;;;;;;4957359;28;21333;-67
2023/12/12 09:59:03;;;;;;;8.20;3.13;;;12.50;99.90;;;;;;4957785;28;20834;-67
2023/12/12 10:01:30;;;;;;;6.07;3.07;;;12.50;99.90;;;;;;4971750;28;20471;-67
2023/12/12 10:03:56;;;;;;;5.03;2.60;;;12.50;99.90;;;;;;4962092;28;20445;-68
2023/12/12 10:06:26;;;;;;;5.70;2.93;;;12.50;99.90;;;;;;4965674;28;20947;-69
2023/12/12 10:08:52;;;;;;;8.10;3.90;;;12.50;99.90;;;;;;4966443;28;20193;-66
2023/12/12 10:11:18;;;;;;;11.33;3.17;;;12.50;99.90;;;;;;4958672;28;20941;-67
2023/12/12 10:13:56;;;;;;;7.37;3.63;;;12.50;99.90;;;;;;4970619;28;20212;-67
2023/12/12 10:16:22;;;;;;;8.40;3.77;;;12.50;99.90;;;;;;4962727;28;20438;-67
2023/12/12 10:18:50;;;;;;;7.00;3.43;;;12.50;99.90;;;;;;4958012;28;20907;-69
2023/12/12 10:21:17;;;;;;;6.70;3.63;;;12.40;99.90;;;;;;4974569;28;20426;-68
2023/12/12 10:23:47;;;;;;;6.80;3.67;;;12.40;99.90;;;;;;4963599;28;20507;-68
2023/12/12 10:26:29;;;;;;;11.30;4.37;;;12.40;99.90;;;;;;4963745;28;20430;-67
2023/12/12 10:28:56;;;;;;;4.93;3.80;;;12.40;99.90;;;;;;4959791;28;20417;-68
2023/12/12 10:31:22;;;;;;;8.30;3.20;;;12.40;99.90;;;;;;4963194;28;20422;-67
2023/12/12 10:33:49;;;;;;;6.60;3.27;;;12.50;99.90;;;;;;4962264;28;20462;-68
2023/12/12 10:36:15;;;;;;;5.43;3.73;;;12.50;99.90;;;;;;4961926;28;20437;-68
2023/12/12 10:38:40;;;;;;;5.60;3.33;;;12.50;99.90;;;;;;4966089;28;20434;-67
2023/12/12 10:41:18;;;;;;;6.90;3.80;;;12.50;99.90;;;;;;4960355;28;20182;-67
2023/12/12 10:43:45;;;;;;;7.73;3.77;;;12.50;99.90;;;;;;4957418;28;20262;-67
2023/12/12 10:46:15;;;;;;;6.13;3.03;;;12.50;99.90;;;;;;4957165;28;20444;-67
2023/12/12 10:48:41;;;;;;;8.03;3.33;;;12.50;99.90;;;;;;4962207;28;20445;-67
2023/12/12 10:51:07;;;;;;;6.17;3.30;;;12.50;99.90;;;;;;4963210;28;20452;-67
2023/12/12 10:53:35;;;;;;;5.90;3.33;;;12.40;99.90;;;;;;4964526;28;20209;-68
2023/12/12 10:56:01;;;;;;;6.30;3.23;;;12.40;99.90;;;;;;4962773;28;20426;-67
2023/12/12 10:58:27;;;;;;;7.07;2.87;;;12.50;99.90;;;;;;4960479;28;20436;-68
2023/12/12 11:00:53;;;;;;;4.93;3.57;;;12.30;99.90;;;;;;4955885;28;20443;-67
2023/12/12 11:03:21;;;;;;;4.60;3.30;;;12.40;99.90;;;;;;4962641;28;20265;-68
2023/12/12 11:05:47;;;;;;;7.43;3.43;;;12.30;99.90;;;;;;4960458;28;21144;-68
2023/12/12 11:08:13;;;;;;;5.43;3.80;;;12.30;99.90;;;;;;4963820;28;20414;-68
2023/12/12 11:10:39;;;;;;;4.57;3.60;;;12.40;99.90;;;;;;4957611;28;20493;-68
2023/12/12 11:13:06;;;;;;;5.13;3.50;;;12.30;99.90;;;;;;4965575;28;21001;-68
2023/12/12 11:15:32;;;;;;;6.03;3.90;;;12.40;99.90;;;;;;4964017;28;20187;-68
2023/12/12 11:18:00;;;;;;;4.90;3.70;;;12.30;99.90;;;;;;4960778;28;20429;-68
2023/12/12 11:20:25;;;;;;;5.57;4.00;;;12.30;99.90;;;;;;4962801;28;20529;-68
2023/12/12 11:22:52;;;;;;;9.50;4.60;;;12.40;99.90;;;;;;4966984;28;20924;-68
2023/12/12 11:25:22;;;;;;;5.87;4.23;;;12.30;99.90;;;;;;4954942;28;20731;-68
2023/12/12 11:27:49;;;;;;;7.17;4.20;;;12.30;99.90;;;;;;4969291;28;20440;-68
2023/12/12 11:30:20;;;;;;;7.70;3.63;;;12.40;99.90;;;;;;4959784;28;20437;-68
2023/12/12 11:32:46;;;;;;;7.03;3.97;;;12.40;99.90;;;;;;4960222;28;20494;-69
2023/12/12 11:35:28;;;;;;;8.27;4.20;;;12.50;99.90;;;;;;4963009;28;20414;-68
2023/12/12 11:37:54;;;;;;;8.53;5.27;;;12.40;99.90;;;;;;4959064;28;20834;-68
2023/12/12 11:40:20;;;;;;;7.93;5.13;;;12.40;99.90;;;;;;4964975;28;20644;-68
2023/12/12 11:42:46;;;;;;;6.43;4.60;;;12.50;99.90;;;;;;4957943;28;20302;-68
2023/12/12 11:45:29;;;;;;;12.30;4.60;;;12.40;99.90;;;;;;4963367;28;20175;-68
2023/12/12 11:47:55;;;;;;;8.53;5.67;;;12.30;99.90;;;;;;4952308;28;20435;-68
2023/12/12 11:50:26;;;;;;;8.40;4.27;;;12.30;99.90;;;;;;4953503;28;20860;-68
2023/12/12 11:52:52;;;;;;;8.33;4.50;;;12.20;99.90;;;;;;4956109;28;20673;-68
2023/12/12 11:55:32;;;;;;;6.87;4.63;;;12.20;99.90;;;;;;4962678;28;20493;-69
2023/12/12 11:58:07;;;;;;;7.93;5.07;;;12.10;99.90;;;;;;4957375;28;20601;-68
2023/12/12 12:00:35;;;;;;;12.90;6.13;;;12.10;99.90;;;;;;4953116;28;20470;-68
2023/12/12 12:03:02;;;;;;;10.07;5.60;;;12.00;99.90;;;;;;4952368;28;20438;-68
2023/12/12 12:05:28;;;;;;;6.50;5.33;;;12.00;99.90;;;;;;4950966;28;20442;-68
2023/12/12 12:07:55;;;;;;;8.60;4.83;;;12.00;99.90;;;;;;4960432;28;20984;-68
2023/12/12 12:10:21;;;;;;;7.50;5.67;;;12.00;99.90;;;;;;4961183;28;21569;-68
2023/12/12 12:12:54;;;;;;;8.57;6.33;;;12.10;99.90;;;;;;4971664;28;20491;-68
2023/12/12 12:15:20;;;;;;;9.63;5.30;;;12.10;99.90;;;;;;4962318;28;20426;-68
2023/12/12 12:17:45;;;;;;;11.27;5.73;;;12.20;99.90;;;;;;4965356;28;20430;-68
2023/12/12 12:20:11;;;;;;;7.10;5.60;;;12.20;99.90;;;;;;4961136;28;20992;-68
2023/12/12 12:22:38;;;;;;;8.20;5.50;;;12.20;99.90;;;;;;4974238;28;20186;-68
2023/12/12 12:25:05;;;;;;;7.87;5.50;;;12.30;99.90;;;;;;4964611;28;20691;-68
2023/12/12 12:27:30;;;;;;;8.90;6.47;;;12.20;99.90;;;;;;4968024;28;20419;-68
2023/12/12 12:29:59;;;;;;;10.13;5.77;;;12.20;99.90;;;;;;4965644;28;20432;-68
2023/12/12 12:32:25;;;;;;;12.77;6.10;;;12.10;99.90;;;;;;4960597;28;20657;-68
2023/12/12 12:35:08;;;;;;;10.20;5.70;;;12.00;99.90;;;;;;4961783;28;20447;-68
2023/12/12 12:37:35;;;;;;;8.40;5.60;;;12.00;99.90;;;;;;4961630;28;20729;-67